createdAt,value
2018-03-26T00:02:03.921Z,37.97
2018-03-26T00:04:31.524Z,39.23
2018-03-26T00:07:00.588Z,37.40
2018-03-26T00:09:28.146Z,38.70
2018-03-26T00:11:55.797Z,37.70
2018-03-26T00:14:23.394Z,35.47
2018-03-26T00:16:50.948Z,33.57
2018-03-26T00:19:18.530Z,35.37
2018-03-26T00:21:46.176Z,32.50
2018-03-26T00:24:13.738Z,31.97
2018-03-26T00:26:41.334Z,31.57
2018-03-26T00:29:09.025Z,29.83
2018-03-26T00:31:36.586Z,29.73
2018-03-26T00:34:04.166Z,28.60
2018-03-26T00:36:31.785Z,30.07
2018-03-26T00:38:59.334Z,31.77
2018-03-26T00:41:26.917Z,34.43
2018-03-26T00:43:54.632Z,32.90
2018-03-26T00:46:22.994Z,33.40
2018-03-26T00:48:52.097Z,31.73
2018-03-26T00:51:19.717Z,33.83
2018-03-26T00:53:47.985Z,32.57
2018-03-26T00:56:15.562Z,32.23
2018-03-26T00:58:43.117Z,30.73
2018-03-26T01:01:10.673Z,29.97
2018-03-26T01:03:38.255Z,33.70
2018-03-26T01:06:05.806Z,28.53
2018-03-26T01:08:33.420Z,28.93
2018-03-26T01:11:01.304Z,34.20
2018-03-26T01:13:28.889Z,33.60
2018-03-26T01:15:56.439Z,33.27
2018-03-26T01:18:24.034Z,34.13
2018-03-26T01:20:51.581Z,32.77
2018-03-26T01:23:19.134Z,34.00
2018-03-26T01:25:46.782Z,31.93
2018-03-26T01:28:14.366Z,33.47
2018-03-26T01:30:42.688Z,34.53
2018-03-26T01:33:10.266Z,31.90
2018-03-26T01:35:37.813Z,31.70
2018-03-26T01:38:05.363Z,33.77
2018-03-26T01:40:32.941Z,33.47
2018-03-26T01:43:00.485Z,32.83
2018-03-26T01:45:28.133Z,33.93
2018-03-26T01:47:55.742Z,33.57
2018-03-26T01:50:24.813Z,32.33
2018-03-26T01:52:52.361Z,30.50
2018-03-26T01:55:20.017Z,30.37
2018-03-26T01:57:47.569Z,32.67
2018-03-26T02:00:15.337Z,32.20
2018-03-26T02:02:42.917Z,31.43
2018-03-26T02:05:10.469Z,30.53
2018-03-26T02:07:38.013Z,27.73
2018-03-26T02:10:05.605Z,28.63
2018-03-26T02:12:33.153Z,27.50
2018-03-26T02:15:00.714Z,30.03
2018-03-26T02:17:28.301Z,29.63
2018-03-26T02:19:55.853Z,33.67
2018-03-26T02:22:24.170Z,32.60
2018-03-26T02:24:51.755Z,34.10
2018-03-26T02:27:19.603Z,35.30
2018-03-26T02:29:47.213Z,34.13
2018-03-26T02:32:14.800Z,36.97
2018-03-26T02:34:42.351Z,37.07
2018-03-26T02:37:09.903Z,38.30
2018-03-26T02:39:38.253Z,38.27
2018-03-26T02:42:05.810Z,39.77
2018-03-26T02:44:33.357Z,36.50
2018-03-26T02:47:01.141Z,43.60
2018-03-26T02:49:28.691Z,38.73
2018-03-26T02:51:56.245Z,37.87
2018-03-26T02:54:24.078Z,34.93
2018-03-26T02:56:51.633Z,34.23
2018-03-26T02:59:19.182Z,33.93
2018-03-26T03:01:46.778Z,34.67
2018-03-26T03:04:14.330Z,35.77
2018-03-26T03:06:41.893Z,37.10
2018-03-26T03:09:09.537Z,37.03
2018-03-26T03:11:37.085Z,38.53
2018-03-26T03:14:04.641Z,37.63
2018-03-26T03:16:32.239Z,33.43
2018-03-26T03:18:59.789Z,34.20
2018-03-26T03:21:27.342Z,32.33
2018-03-26T03:23:54.922Z,32.40
2018-03-26T03:26:22.482Z,34.13
2018-03-26T03:28:50.095Z,34.53
2018-03-26T03:31:17.821Z,32.30
2018-03-26T03:33:46.134Z,33.63
2018-03-26T03:36:13.688Z,35.03
2018-03-26T03:38:41.282Z,38.23
2018-03-26T03:41:08.833Z,40.90
2018-03-26T03:43:36.381Z,38.90
2018-03-26T03:46:03.981Z,40.27
2018-03-26T03:48:32.393Z,39.70
2018-03-26T03:50:59.948Z,36.77
2018-03-26T03:53:27.526Z,34.80
2018-03-26T03:55:55.388Z,37.10
2018-03-26T03:58:22.944Z,34.53
2018-03-26T04:00:50.538Z,32.70
2018-03-26T04:03:18.206Z,34.80
2018-03-26T04:05:45.749Z,33.57
2018-03-26T04:08:13.359Z,33.67
2018-03-26T04:10:40.965Z,35.53
2018-03-26T04:13:08.519Z,35.23
2018-03-26T04:15:36.264Z,40.17
2018-03-26T04:18:03.925Z,34.80
2018-03-26T04:20:31.687Z,39.43
2018-03-26T04:22:59.284Z,39.87
2018-03-26T04:25:26.838Z,38.10
2018-03-26T04:27:54.565Z,40.40
2018-03-26T04:30:22.158Z,39.33
2018-03-26T04:32:49.717Z,41.07
2018-03-26T04:35:17.281Z,43.73
2018-03-26T04:37:44.866Z,39.27
2018-03-26T04:40:13.178Z,40.20
2018-03-26T04:42:40.730Z,40.73
2018-03-26T04:45:08.354Z,40.43
2018-03-26T04:47:36.086Z,39.83
2018-03-26T04:50:03.710Z,47.67
2018-03-26T04:52:31.319Z,44.20
2018-03-26T04:54:58.873Z,43.57
2018-03-26T04:57:26.419Z,41.37
2018-03-26T04:59:54.018Z,49.77
2018-03-26T05:02:22.337Z,54.80
2018-03-26T05:04:49.890Z,104.97
2018-03-26T05:07:17.473Z,57.40
2018-03-26T05:09:45.175Z,61.17
2018-03-26T05:12:12.845Z,57.20
2018-03-26T05:14:40.569Z,56.10
2018-03-26T05:17:08.190Z,64.20
2018-03-26T05:19:35.755Z,65.43
2018-03-26T05:22:03.366Z,62.10
2018-03-26T05:24:31.692Z,68.63
2018-03-26T05:26:59.295Z,79.63
2018-03-26T05:29:27.823Z,73.40
2018-03-26T05:31:55.382Z,61.87
2018-03-26T05:34:22.942Z,62.53
2018-03-26T05:36:50.568Z,69.63
2018-03-26T05:39:18.896Z,104.90
2018-03-26T05:41:46.462Z,93.33
2018-03-26T05:44:14.057Z,97.13
2018-03-26T05:46:41.610Z,98.90
2018-03-26T05:49:09.921Z,86.33
2018-03-26T05:51:37.798Z,85.27
2018-03-26T05:54:05.377Z,110.20
2018-03-26T05:56:32.945Z,120.63
2018-03-26T05:59:00.600Z,171.33
2018-03-26T06:01:28.293Z,154.87
2018-03-26T06:03:55.866Z,144.73
2018-03-26T06:06:23.526Z,161.33
2018-03-26T06:08:51.099Z,163.13
2018-03-26T06:11:18.657Z,133.50
2018-03-26T06:13:46.260Z,112.40
2018-03-26T06:16:14.783Z,108.37
2018-03-26T06:18:42.638Z,84.83
2018-03-26T06:21:11.006Z,89.30
2018-03-26T06:23:38.593Z,102.30
2018-03-26T06:26:06.173Z,117.13
2018-03-26T06:28:33.914Z,143.17
2018-03-26T06:31:01.507Z,129.67
2018-03-26T06:33:29.068Z,100.53
2018-03-26T06:35:56.669Z,91.73
2018-03-26T06:38:41.666Z,97.27
2018-03-26T06:41:09.410Z,94.87
2018-03-26T06:43:36.962Z,89.67
2018-03-26T06:46:04.525Z,90.00
2018-03-26T06:48:32.123Z,79.07
2018-03-26T06:50:59.678Z,82.80
2018-03-26T06:53:27.538Z,93.77
2018-03-26T06:55:55.178Z,88.47
2018-03-26T06:58:22.738Z,106.40
2018-03-26T07:00:50.294Z,102.53
2018-03-26T07:03:17.892Z,99.33
2018-03-26T07:05:45.446Z,93.80
2018-03-26T07:08:12.993Z,85.27
2018-03-26T07:10:40.647Z,71.67
2018-03-26T07:13:08.194Z,89.63
2018-03-26T07:15:35.752Z,89.60
2018-03-26T07:18:03.358Z,90.40
2018-03-26T07:20:31.081Z,85.40
2018-03-26T07:22:58.782Z,72.90
2018-03-26T07:25:26.376Z,86.07
2018-03-26T07:27:53.928Z,81.17
2018-03-26T07:30:22.321Z,73.10
2018-03-26T07:32:50.002Z,91.67
2018-03-26T07:35:17.550Z,77.70
2018-03-26T07:37:45.128Z,80.07
2018-03-26T07:40:12.753Z,83.87
2018-03-26T07:42:40.852Z,79.67
2018-03-26T07:45:08.409Z,76.60
2018-03-26T07:47:36.013Z,77.20
2018-03-26T07:50:03.823Z,80.10
2018-03-26T07:52:31.567Z,84.13
2018-03-26T07:54:59.464Z,78.53
2018-03-26T07:57:27.036Z,68.63
2018-03-26T07:59:54.606Z,63.57
2018-03-26T08:02:22.956Z,64.83
2018-03-26T08:04:50.513Z,67.80
2018-03-26T08:07:18.079Z,63.60
2018-03-26T08:09:45.676Z,62.77
2018-03-26T08:12:13.414Z,57.03
2018-03-26T08:14:40.982Z,50.77
2018-03-26T08:17:08.742Z,53.00
2018-03-26T08:19:36.289Z,58.80
2018-03-26T08:22:03.909Z,54.17
2018-03-26T08:24:31.503Z,49.77
2018-03-26T08:26:59.046Z,50.53
2018-03-26T08:29:26.691Z,43.30
2018-03-26T08:31:54.270Z,42.17
2018-03-26T08:34:21.832Z,40.70
2018-03-26T08:36:49.590Z,39.67
2018-03-26T08:39:17.245Z,45.73
2018-03-26T08:41:44.795Z,48.33
2018-03-26T08:44:12.538Z,48.10
2018-03-26T08:46:40.609Z,46.57
2018-03-26T08:49:08.234Z,53.07
2018-03-26T08:51:35.783Z,61.33
2018-03-26T08:54:03.373Z,64.07
2018-03-26T08:56:31.307Z,67.83
2018-03-26T08:58:58.861Z,68.53
2018-03-26T09:01:26.446Z,71.90
2018-03-26T09:03:54.885Z,67.33
2018-03-26T09:06:22.460Z,68.20
2018-03-26T09:08:50.057Z,72.90
2018-03-26T09:11:18.371Z,88.07
2018-03-26T09:13:45.934Z,81.77
2018-03-26T09:16:13.526Z,57.37
2018-03-26T09:18:41.074Z,57.57
2018-03-26T09:21:08.934Z,59.20
2018-03-26T09:23:36.797Z,56.57
2018-03-26T09:26:04.459Z,52.23
2018-03-26T09:28:31.989Z,51.83
2018-03-26T09:30:59.802Z,45.30
2018-03-26T09:33:27.350Z,71.53
2018-03-26T09:35:55.392Z,62.17
2018-03-26T09:38:23.002Z,37.43
2018-03-26T09:40:51.661Z,49.60
2018-03-26T09:43:19.548Z,50.50
2018-03-26T09:45:48.390Z,68.03
2018-03-26T09:48:16.087Z,267.43
2018-03-26T09:50:44.406Z,45.10
2018-03-26T09:53:12.298Z,37.47
2018-03-26T09:55:39.855Z,38.47
2018-03-26T09:58:07.689Z,40.13
2018-03-26T10:00:41.147Z,37.13
2018-03-26T10:03:08.733Z,36.87
2018-03-26T10:05:36.294Z,35.57
2018-03-26T10:08:04.953Z,31.67
2018-03-26T10:10:33.267Z,26.87
2018-03-26T10:13:01.281Z,27.23
2018-03-26T10:15:29.025Z,30.43
2018-03-26T10:17:56.922Z,36.90
2018-03-26T10:20:25.086Z,24.57
2018-03-26T10:22:52.799Z,23.93
2018-03-26T10:25:20.399Z,22.27
2018-03-26T10:27:48.861Z,22.77
2018-03-26T10:30:16.798Z,24.57
2018-03-26T10:32:44.771Z,20.47
2018-03-26T10:35:12.377Z,27.37
2018-03-26T10:37:40.149Z,23.90
2018-03-26T10:40:07.821Z,21.03
2018-03-26T10:42:35.370Z,25.97
2018-03-26T10:47:35.974Z,18.33
2018-03-26T10:50:03.566Z,22.13
2018-03-26T10:52:31.294Z,24.30
2018-03-26T10:54:59.045Z,20.00
2018-03-26T10:57:26.646Z,18.97
2018-03-26T10:59:54.569Z,20.90
2018-03-26T11:02:22.114Z,16.37
2018-03-26T11:04:50.778Z,14.70
2018-03-26T11:07:18.327Z,13.80
2018-03-26T11:09:46.033Z,14.83
2018-03-26T11:12:13.820Z,15.37
2018-03-26T11:14:41.566Z,17.20
2018-03-26T11:17:09.114Z,17.37
2018-03-26T11:19:37.242Z,17.47
2018-03-26T11:22:06.473Z,16.40
2018-03-26T11:24:34.790Z,18.07
2018-03-26T11:27:02.396Z,17.03
2018-03-26T11:29:30.712Z,16.30
2018-03-26T11:31:58.254Z,19.10
2018-03-26T11:34:26.035Z,19.90
2018-03-26T11:36:53.841Z,17.53
2018-03-26T11:39:22.186Z,17.43
2018-03-26T11:41:49.984Z,15.33
2018-03-26T11:44:17.653Z,16.67
2018-03-26T11:49:20.177Z,17.17
2018-03-26T11:51:48.000Z,19.20
2018-03-26T11:54:16.488Z,26.20
2018-03-26T11:56:44.716Z,39.60
2018-03-26T11:59:12.342Z,55.30
2018-03-26T12:01:40.462Z,32.83
2018-03-26T12:04:08.312Z,29.17
2018-03-26T12:06:36.854Z,40.10
2018-03-26T12:09:05.296Z,42.77
2018-03-26T12:11:32.954Z,43.50
2018-03-26T12:14:00.916Z,102.20
2018-03-26T12:16:28.908Z,35.27
2018-03-26T12:18:56.779Z,36.33
2018-03-26T12:21:24.362Z,29.60
2018-03-26T12:24:03.767Z,33.27
2018-03-26T12:26:31.325Z,31.60
2018-03-26T12:29:12.202Z,36.73
2018-03-26T12:31:40.013Z,32.67
2018-03-26T12:34:19.563Z,30.43
2018-03-26T12:36:47.243Z,43.93
2018-03-26T12:39:15.031Z,36.20
2018-03-26T12:41:43.197Z,30.47
2018-03-26T12:44:11.672Z,33.17
2018-03-26T12:46:44.384Z,29.07
2018-03-26T12:49:11.955Z,38.97
2018-03-26T12:51:51.508Z,34.00
2018-03-26T12:54:19.300Z,29.20
2018-03-26T12:56:46.986Z,27.27
2018-03-26T12:59:14.873Z,28.00
2018-03-26T13:01:55.219Z,25.27
2018-03-26T13:04:23.675Z,51.27
2018-03-26T13:06:51.689Z,38.57
2018-03-26T13:09:19.358Z,49.17
2018-03-26T13:11:47.327Z,35.50
2018-03-26T13:14:15.361Z,27.57
2018-03-26T13:16:42.938Z,34.30
2018-03-26T13:19:10.727Z,32.83
2018-03-26T13:21:38.564Z,30.40
2018-03-26T13:24:07.096Z,41.77
2018-03-26T13:26:34.919Z,57.90
2018-03-26T13:29:03.438Z,66.40
2018-03-26T13:31:31.029Z,37.17
2018-03-26T13:33:58.618Z,31.53
2018-03-26T13:36:26.525Z,27.07
2018-03-26T13:38:54.087Z,26.67
2018-03-26T13:41:22.013Z,40.57
2018-03-26T13:43:49.583Z,53.23
2018-03-26T13:46:17.406Z,26.57
2018-03-26T13:48:46.114Z,24.73
2018-03-26T13:51:14.532Z,25.03
2018-03-26T13:53:42.218Z,24.80
2018-03-26T13:56:09.809Z,24.30
2018-03-26T13:58:37.545Z,32.03
2018-03-26T14:01:05.390Z,109.73
2018-03-26T14:03:33.917Z,179.13
2018-03-26T14:06:01.478Z,49.40
2018-03-26T14:08:40.955Z,32.63
2018-03-26T14:11:20.128Z,57.27
2018-03-26T14:13:59.737Z,50.23
2018-03-26T14:16:39.072Z,65.60
2018-03-26T14:19:06.882Z,30.47
2018-03-26T14:21:34.506Z,30.67
2018-03-26T14:24:02.223Z,47.10
2018-03-26T14:26:30.270Z,53.53
2018-03-26T14:28:58.211Z,32.83
2018-03-26T14:31:25.787Z,27.50
2018-03-26T14:33:53.408Z,27.33
2018-03-26T14:36:21.349Z,42.20
2018-03-26T14:38:48.971Z,64.37
2018-03-26T14:41:16.656Z,43.60
2018-03-26T14:43:44.289Z,45.13
2018-03-26T14:46:11.865Z,35.43
2018-03-26T14:48:40.539Z,28.17
2018-03-26T14:51:08.106Z,27.80
2018-03-26T14:53:35.822Z,29.77
2018-03-26T14:56:03.430Z,50.80
2018-03-26T14:58:31.052Z,69.50
2018-03-26T15:00:58.623Z,86.27
2018-03-26T15:03:26.261Z,197.97
2018-03-26T15:05:54.349Z,118.53
2018-03-26T15:08:22.400Z,232.60
2018-03-26T15:10:50.088Z,165.30
2018-03-26T15:13:17.969Z,87.60
2018-03-26T15:15:45.597Z,67.63
2018-03-26T15:18:13.800Z,37.57
2018-03-26T15:20:43.351Z,31.17
2018-03-26T15:23:11.266Z,45.03
2018-03-26T15:25:39.096Z,46.00
2018-03-26T15:28:06.681Z,68.33
2018-03-26T15:30:34.474Z,44.77
2018-03-26T15:33:02.561Z,46.10
2018-03-26T15:35:30.455Z,61.97
2018-03-26T15:37:58.027Z,41.67
2018-03-26T15:40:25.766Z,36.97
2018-03-26T15:42:53.462Z,306.50
2018-03-26T15:45:21.277Z,196.70
2018-03-26T15:47:49.106Z,98.87
2018-03-26T15:50:17.454Z,93.63
2018-03-26T15:52:45.014Z,87.00
2018-03-26T15:55:12.776Z,70.03
2018-03-26T15:57:40.348Z,80.53
2018-03-26T16:00:07.970Z,79.17
2018-03-26T16:02:41.277Z,98.10
2018-03-26T16:05:09.035Z,106.17
2018-03-26T16:07:36.763Z,203.57
2018-03-26T16:10:05.358Z,224.80
2018-03-26T16:12:32.949Z,189.37
2018-03-26T16:15:00.759Z,139.23
2018-03-26T16:17:29.626Z,126.80
2018-03-26T16:19:57.731Z,82.67
2018-03-26T16:22:26.352Z,52.00
2018-03-26T16:24:54.212Z,59.60
2018-03-26T16:27:21.881Z,62.93
2018-03-26T16:29:49.824Z,64.27
2018-03-26T16:32:18.410Z,46.00
2018-03-26T16:34:46.058Z,60.27
2018-03-26T16:37:13.957Z,97.63
2018-03-26T16:39:41.595Z,65.93
2018-03-26T16:45:13.019Z,113.90
2018-03-26T16:47:40.940Z,78.30
2018-03-26T16:50:08.502Z,71.53
2018-03-26T16:52:36.264Z,78.40
2018-03-26T16:55:03.887Z,150.27
2018-03-26T16:57:32.515Z,142.10
2018-03-26T17:00:00.117Z,228.10
2018-03-26T17:02:27.836Z,219.33
2018-03-26T17:04:55.676Z,189.87
2018-03-26T17:07:23.486Z,183.30
2018-03-26T17:09:51.251Z,163.43
2018-03-26T17:12:19.298Z,183.27
2018-03-26T17:14:46.903Z,184.97
2018-03-26T17:17:14.670Z,172.10
2018-03-26T17:19:43.025Z,161.33
2018-03-26T17:22:10.675Z,149.77
2018-03-26T17:24:38.402Z,152.27
2018-03-26T17:27:06.189Z,164.90
2018-03-26T17:29:33.790Z,165.90
2018-03-26T17:32:02.353Z,156.13
2018-03-26T17:34:30.292Z,180.20
2018-03-26T17:36:58.033Z,182.50
2018-03-26T17:39:25.659Z,195.00
2018-03-26T17:41:53.410Z,193.13
2018-03-26T17:44:21.116Z,187.30
2018-03-26T17:46:48.724Z,212.13
2018-03-26T17:49:16.466Z,196.70
2018-03-26T17:51:44.964Z,185.17
2018-03-26T17:54:12.601Z,180.30
2018-03-26T17:56:40.198Z,159.63
2018-03-26T17:59:07.907Z,156.03
2018-03-26T18:01:35.475Z,150.13
2018-03-26T18:04:03.283Z,160.23
2018-03-26T18:06:30.934Z,157.40
2018-03-26T18:08:58.769Z,171.03
2018-03-26T18:11:26.473Z,188.30
2018-03-26T18:13:54.134Z,193.57
2018-03-26T18:16:22.522Z,167.40
2018-03-26T18:18:50.499Z,158.77
2018-03-26T18:21:19.024Z,157.30
2018-03-26T18:23:46.800Z,155.57
2018-03-26T18:26:14.473Z,149.47
2018-03-26T18:28:42.559Z,143.47
2018-03-26T18:31:10.391Z,141.90
2018-03-26T18:33:37.972Z,148.43
2018-03-26T18:36:05.571Z,151.37
2018-03-26T18:38:33.238Z,151.57
2018-03-26T18:41:00.835Z,138.37
2018-03-26T18:43:28.470Z,181.00
2018-03-26T18:45:56.232Z,184.20
2018-03-26T18:48:24.160Z,188.87
2018-03-26T18:50:52.328Z,188.53
2018-03-26T18:53:20.081Z,172.67
2018-03-26T18:55:48.326Z,166.13
2018-03-26T18:58:16.097Z,148.00
2018-03-26T19:00:43.682Z,142.33
2018-03-26T19:03:11.281Z,128.83
2018-03-26T19:05:38.907Z,132.70
2018-03-26T19:08:07.999Z,137.80
2018-03-26T19:10:35.769Z,139.40
2018-03-26T19:13:03.553Z,134.27
2018-03-26T19:15:31.194Z,134.07
2018-03-26T19:17:59.017Z,126.53
2018-03-26T19:20:27.060Z,112.53
2018-03-26T19:22:54.654Z,101.20
2018-03-26T19:25:22.474Z,103.97
2018-03-26T19:27:50.150Z,114.23
2018-03-26T19:30:17.743Z,127.90
2018-03-26T19:32:45.668Z,106.10
2018-03-26T19:35:13.318Z,91.63
2018-03-26T19:37:41.261Z,105.37
2018-03-26T19:40:09.742Z,103.10
2018-03-26T19:42:38.156Z,118.23
2018-03-26T19:45:06.044Z,127.30
2018-03-26T19:47:33.836Z,123.77
2018-03-26T19:50:01.439Z,123.30
2018-03-26T19:52:29.007Z,117.17
2018-03-26T19:54:56.711Z,120.13
2018-03-26T19:57:24.389Z,111.93
2018-03-26T19:59:52.417Z,110.73
2018-03-26T20:02:20.114Z,100.30
2018-03-26T20:04:48.007Z,98.70
2018-03-26T20:07:16.355Z,103.70
2018-03-26T20:09:44.147Z,130.97
2018-03-26T20:12:12.538Z,120.43
2018-03-26T20:14:40.457Z,130.43
2018-03-26T20:17:08.052Z,99.83
2018-03-26T20:19:36.364Z,134.70
2018-03-26T20:22:03.948Z,120.10
2018-03-26T20:24:31.519Z,90.73
2018-03-26T20:27:00.577Z,86.03
2018-03-26T20:29:28.339Z,165.43
2018-03-26T20:31:56.167Z,185.53
2018-03-26T20:34:24.593Z,167.97
2018-03-26T20:36:53.065Z,138.33
2018-03-26T20:39:20.671Z,131.93
2018-03-26T20:41:48.297Z,147.90
2018-03-26T20:44:15.873Z,142.27
2018-03-26T20:46:44.122Z,132.73
2018-03-26T20:49:11.871Z,123.03
2018-03-26T20:51:39.641Z,113.00
2018-03-26T20:54:07.228Z,111.63
2018-03-26T20:56:35.008Z,99.43
2018-03-26T20:59:03.033Z,81.70
2018-03-26T21:01:30.638Z,73.00
2018-03-26T21:03:59.053Z,84.87
2018-03-26T21:06:26.645Z,72.33
2018-03-26T21:08:54.197Z,78.30
2018-03-26T21:11:21.794Z,87.10
2018-03-26T21:13:50.127Z,87.20
2018-03-26T21:16:17.918Z,88.40
2018-03-26T21:18:45.925Z,102.87
2018-03-26T21:21:13.481Z,96.93
2018-03-26T21:23:41.813Z,99.67
2018-03-26T21:26:09.475Z,100.33
2018-03-26T21:28:37.042Z,101.20
2018-03-26T21:31:05.329Z,98.77
2018-03-26T21:33:33.695Z,111.30
2018-03-26T21:36:03.185Z,99.20
2018-03-26T21:38:30.788Z,94.50
2018-03-26T21:40:59.365Z,89.50
2018-03-26T21:43:26.929Z,101.07
2018-03-26T21:45:55.300Z,96.80
2018-03-26T21:48:23.372Z,98.77
2018-03-26T21:50:50.970Z,96.40
2018-03-26T21:53:18.541Z,95.67
2018-03-26T21:55:46.710Z,95.63
2018-03-26T21:58:14.269Z,95.73
2018-03-26T22:00:41.923Z,93.17
2018-03-26T22:03:09.767Z,82.17
2018-03-26T22:05:37.496Z,92.37
2018-03-26T22:08:05.254Z,91.67
2018-03-26T22:10:33.391Z,91.47
2018-03-26T22:13:01.025Z,88.47
2018-03-26T22:15:28.766Z,82.00
2018-03-26T22:17:56.650Z,83.10
2018-03-26T22:20:24.247Z,82.57
2018-03-26T22:22:52.156Z,75.13
2018-03-26T22:25:20.504Z,71.33
2018-03-26T22:27:48.534Z,75.10
2018-03-26T22:30:16.627Z,81.73
2018-03-26T22:32:44.245Z,69.37
2018-03-26T22:35:11.820Z,53.37
2018-03-26T22:37:39.384Z,50.23
2018-03-26T22:40:07.042Z,54.87
2018-03-26T22:42:34.634Z,55.77
2018-03-26T22:45:02.281Z,57.17
2018-03-26T22:47:30.270Z,56.60
2018-03-26T22:49:57.829Z,57.33
2018-03-26T22:52:25.554Z,61.27
2018-03-26T22:54:53.154Z,58.37
2018-03-26T22:57:20.930Z,62.53
2018-03-26T22:59:48.595Z,58.63
2018-03-26T23:02:16.206Z,58.57
2018-03-26T23:04:44.126Z,60.60
2018-03-26T23:07:12.070Z,65.50
2018-03-26T23:09:39.958Z,59.90
2018-03-26T23:12:07.914Z,62.07
2018-03-26T23:14:35.538Z,65.17
2018-03-26T23:17:03.217Z,63.73
2018-03-26T23:19:31.012Z,60.03
2018-03-26T23:21:58.987Z,55.37
2018-03-26T23:24:26.841Z,51.37
2018-03-26T23:26:54.598Z,54.83
2018-03-26T23:29:22.166Z,51.67
2018-03-26T23:31:49.775Z,48.37
2018-03-26T23:34:17.335Z,45.07
2018-03-26T23:36:45.232Z,45.00
2018-03-26T23:39:12.841Z,44.97
2018-03-26T23:41:40.394Z,44.80
2018-03-26T23:44:08.179Z,44.20
2018-03-26T23:46:35.858Z,44.50
2018-03-26T23:49:03.551Z,42.13
2018-03-26T23:51:31.115Z,45.20
2018-03-26T23:53:58.896Z,42.43
2018-03-26T23:56:26.487Z,46.53
2018-03-26T23:58:54.137Z,44.07
